Meteoliendo - El tiempo en Liendo - Informes METAR de Aeropuertos cercanos

Informes METAR de Aeropuertos cercanos

 

LEXJ - Santander
Actualización: 23/10/2018 06:30
Muy nuboso
Muy nuboso
 Viento del varies
Viento: varies 2 km/h
Temperatura: 13°C
Rocío: 13°C
Humedad: 100%
Barómetro: 1030 hPa
Clouds: Muy nuboso
Visibility: 6 km
Cloud details: Parcialmente nuboso 457 m
Muy nuboso 1311 m
2018/10/23 04:30 LEXJ 230430Z VRB01KT 6000 SCT015 BKN043 13/13 Q1030
LEAS - Asturias/Aviles
Actualización: 23/10/2018 06:30
Parcialmente nuboso
Parcialmente nuboso
 Viento del SE
Viento: SE 9 km/h
Temperatura: 14°C
Rocío: 11°C
Humedad: 82%
Barómetro: 1030 hPa
Clouds: Parcialmente nuboso
Visibility: 10 km
Cloud details: Few Clouds 762 m
Parcialmente nuboso 1372 m
2018/10/23 04:30 LEAS 230430Z 13005KT 080V160 9999 FEW025 SCT045 14/11 Q1030 TEMPO BKN010
LEBB - Bilbao
Actualización: 23/10/2018 06:30
Despejado
Despejado
 Viento del calm
Viento: Calma
Temperatura: 10°C
Rocío: 9°C
Humedad: 94%
Barómetro: 1030 hPa
Resumen: Despejado
Visibility: greater than 10 km
2018/10/23 04:30 LEBB 230430Z 00000KT CAVOK 10/09 Q1030 NOSIG
 
LEBG - Burgos/Villafría
Actualización: 23/10/2018 06:30
Despejado
Despejado
 Viento del NE
Viento: NE 19 km/h
Temperatura: 7°C
Wind Chill: 4°C
Rocío: 6°C
Humedad: 93%
Barómetro: 1029 hPa
Clouds: Despejado
Visibility: 10 km
2018/10/23 04:30 LEBG 230430Z AUTO 05010KT 9999 NCD 07/06 Q1029
LELO - Logroño
Actualización: 23/10/2018 06:30
Despejado
Despejado
 Viento del OSO
Viento: OSO 17 km/h
Temperatura: 9°C
Wind Chill: 7°C
Rocío: 7°C
Humedad: 87%
Barómetro: 1029 hPa
Resumen: Despejado
Visibility: greater than 10 km
2018/10/23 04:30 LELO 230430Z 25009KT CAVOK 09/07 Q1029
LEPP - Pamplona
Actualización: 23/10/2018 06:30
Few Clouds
Few Clouds
 Viento del NNO
Viento: NNO 19 km/h
Temperatura: 11°C
Rocío: 8°C
Humedad: 82%
Barómetro: 1027 hPa
Clouds: Few Clouds
Visibility: 10 km
Cloud details: Few Clouds 549 m
2018/10/23 04:30 LEPP 230430Z 34010KT 9999 FEW018 11/08 Q1027
 
LESO - San Sebastián
Actualización: 23/10/2018 06:30
Few Clouds
Few Clouds
 Viento del S
Viento: S 6 km/h
Temperatura: 11°C
Rocío: 10°C
Humedad: 94%
Barómetro: 1029 hPa
Clouds: Few Clouds
Visibility: 10 km
Cloud details: Few Clouds 366 m
2018/10/23 04:30 LESO 230430Z 18003KT 140V260 9999 FEW012 11/10 Q1029
LEST - Santiago de Compostela
Actualización: 23/10/2018 06:30
Despejado
Despejado
 Viento del E
Viento: E 6 km/h
Temperatura: 13°C
Rocío: 8°C
Humedad: 72%
Barómetro: 1026 hPa
Resumen: Despejado
Visibility: greater than 10 km
2018/10/23 04:30 LEST 230430Z 08003KT 020V160 CAVOK 13/08 Q1026 NOSIG
LEVT - Vitoria
Actualización: 23/10/2018 06:30
Parcialmente nuboso
Parcialmente nuboso
 Viento del SSO
Viento: SSO 2 km/h
Temperatura: 6°C
Rocío: 6°C
Humedad: 100%
Barómetro: 1029 hPa
Clouds: Parcialmente nuboso
Visibility: 9 km
Cloud details: Parcialmente nuboso 762 m
2018/10/23 04:30 LEVT 230430Z 21001KT 9000 SCT025 06/06 Q1029